createdAt,value
2018-02-08T00:01:18.961Z,35.00
2018-02-08T00:03:46.473Z,26.60
2018-02-08T00:06:14.174Z,28.83
2018-02-08T00:08:41.706Z,32.17
2018-02-08T00:11:09.238Z,28.63
2018-02-08T00:13:37.470Z,34.07
2018-02-08T00:16:04.991Z,25.87
2018-02-08T00:18:33.253Z,28.97
2018-02-08T00:21:02.222Z,28.67
2018-02-08T00:23:29.696Z,26.53
2018-02-08T00:25:57.267Z,28.20
2018-02-08T00:28:25.487Z,28.60
2018-02-08T00:30:52.965Z,30.70
2018-02-08T00:33:20.454Z,25.33
2018-02-08T00:35:49.789Z,26.57
2018-02-08T00:38:17.247Z,32.87
2018-02-08T00:40:45.790Z,29.50
2018-02-08T00:43:14.030Z,26.50
2018-02-08T00:45:41.514Z,28.63
2018-02-08T00:48:09.766Z,34.40
2018-02-08T00:50:37.396Z,29.23
2018-02-08T00:53:04.878Z,31.63
2018-02-08T00:55:32.454Z,26.80
2018-02-08T00:58:01.130Z,39.40
2018-02-08T01:00:28.582Z,28.20
2018-02-08T01:02:56.074Z,31.53
2018-02-08T01:05:23.593Z,31.00
2018-02-08T01:07:51.055Z,30.53
2018-02-08T01:10:18.659Z,32.63
2018-02-08T01:12:46.894Z,30.67
2018-02-08T01:15:14.361Z,32.03
2018-02-08T01:17:41.967Z,34.80
2018-02-08T01:20:09.414Z,33.00
2018-02-08T01:22:36.878Z,32.17
2018-02-08T01:25:05.465Z,30.73
2018-02-08T01:27:32.922Z,35.17
2018-02-08T01:30:00.398Z,33.80
2018-02-08T01:32:27.877Z,34.97
2018-02-08T01:34:56.515Z,34.83
2018-02-08T01:37:23.986Z,32.80
2018-02-08T01:39:51.482Z,30.17
2018-02-08T01:42:18.969Z,38.70
2018-02-08T01:44:47.308Z,37.20
2018-02-08T01:47:14.786Z,32.87
2018-02-08T01:49:45.818Z,39.87
2018-02-08T01:52:13.390Z,32.10
2018-02-08T01:54:48.784Z,32.40
2018-02-08T01:57:16.574Z,35.03
2018-02-08T01:59:44.169Z,41.97
2018-02-08T02:02:12.415Z,38.60
2018-02-08T02:04:39.888Z,31.90
2018-02-08T02:07:08.152Z,33.70
2018-02-08T02:09:35.626Z,32.30
2018-02-08T02:12:03.866Z,40.10
2018-02-08T02:14:31.358Z,34.77
2018-02-08T02:16:59.785Z,35.83
2018-02-08T02:19:27.247Z,32.53
2018-02-08T02:21:54.729Z,34.63
2018-02-08T02:24:22.222Z,41.03
2018-02-08T02:26:49.721Z,32.20
2018-02-08T02:29:17.246Z,34.57
2018-02-08T02:31:44.746Z,36.60
2018-02-08T02:34:12.239Z,34.10
2018-02-08T02:36:40.499Z,37.53
2018-02-08T02:39:07.975Z,35.17
2018-02-08T02:41:36.268Z,35.77
2018-02-08T02:44:04.451Z,34.43
2018-02-08T02:46:31.953Z,37.17
2018-02-08T02:48:59.438Z,35.80
2018-02-08T02:51:27.703Z,30.93
2018-02-08T02:53:56.020Z,32.67
2018-02-08T02:56:23.494Z,33.50
2018-02-08T02:58:50.979Z,33.10
2018-02-08T03:01:18.507Z,36.60
2018-02-08T03:03:45.963Z,38.33
2018-02-08T03:06:13.430Z,40.00
2018-02-08T03:08:40.909Z,36.10
2018-02-08T03:11:08.426Z,34.17
2018-02-08T03:13:35.894Z,44.87
2018-02-08T03:16:03.381Z,39.80
2018-02-08T03:18:30.854Z,35.73
2018-02-08T03:20:59.122Z,33.40
2018-02-08T03:23:26.654Z,35.93
2018-02-08T03:25:54.172Z,36.07
2018-02-08T03:28:22.386Z,38.00
2018-02-08T03:31:06.863Z,38.53
2018-02-08T03:33:34.379Z,38.00
2018-02-08T03:36:01.831Z,34.43
2018-02-08T03:38:29.357Z,37.63
2018-02-08T03:40:57.628Z,36.67
2018-02-08T03:43:26.622Z,40.20
2018-02-08T03:45:54.882Z,47.00
2018-02-08T03:48:23.722Z,41.87
2018-02-08T03:50:51.187Z,41.30
2018-02-08T03:53:19.538Z,42.40
2018-02-08T03:55:47.019Z,36.90
2018-02-08T03:58:14.549Z,40.20
2018-02-08T04:00:42.848Z,40.30
2018-02-08T04:03:10.374Z,38.20
2018-02-08T04:05:38.604Z,37.40
2018-02-08T04:08:06.214Z,40.23
2018-02-08T04:10:34.485Z,38.93
2018-02-08T04:13:02.709Z,42.10
2018-02-08T04:15:30.206Z,41.70
2018-02-08T04:17:58.445Z,41.20
2018-02-08T04:20:25.930Z,44.77
2018-02-08T04:22:53.476Z,35.17
2018-02-08T04:25:20.925Z,36.13
2018-02-08T04:27:48.407Z,39.67
2018-02-08T04:30:17.406Z,38.90
2018-02-08T04:32:44.866Z,46.03
2018-02-08T04:35:13.126Z,41.03
2018-02-08T04:37:40.618Z,37.13
2018-02-08T04:40:32.743Z,41.70
2018-02-08T04:43:12.910Z,45.90
2018-02-08T04:45:52.576Z,44.70
2018-02-08T04:48:20.128Z,39.57
2018-02-08T04:50:47.633Z,41.13
2018-02-08T04:53:15.162Z,40.17
2018-02-08T04:55:42.683Z,46.40
2018-02-08T04:58:10.927Z,47.70
2018-02-08T05:00:38.422Z,43.23
2018-02-08T05:03:06.004Z,45.23
2018-02-08T05:05:33.462Z,41.17
2018-02-08T05:08:00.957Z,46.30
2018-02-08T05:10:28.437Z,49.07
2018-02-08T05:12:57.323Z,42.90
2018-02-08T05:15:25.589Z,45.10
2018-02-08T05:17:54.246Z,39.30
2018-02-08T05:20:21.709Z,44.13
2018-02-08T05:22:50.639Z,47.63
2018-02-08T05:25:18.139Z,46.80
2018-02-08T05:27:45.862Z,44.43
2018-02-08T05:30:14.203Z,42.17
2018-02-08T05:32:41.667Z,48.93
2018-02-08T05:35:09.135Z,39.50
2018-02-08T05:37:37.422Z,44.00
2018-02-08T05:40:04.935Z,46.77
2018-02-08T05:42:32.454Z,43.53
2018-02-08T05:45:00.530Z,46.43
2018-02-08T05:47:28.026Z,45.10
2018-02-08T05:49:55.538Z,44.50
2018-02-08T05:52:23.039Z,43.33
2018-02-08T05:54:50.522Z,45.87
2018-02-08T05:57:17.989Z,44.77
2018-02-08T05:59:46.330Z,44.73
2018-02-08T06:02:13.793Z,44.73
2018-02-08T06:04:41.261Z,42.80
2018-02-08T06:07:08.746Z,42.70
2018-02-08T06:09:37.877Z,45.93
2018-02-08T06:12:05.339Z,45.17
2018-02-08T06:14:32.846Z,48.50
2018-02-08T06:17:01.109Z,45.43
2018-02-08T06:19:28.586Z,46.90
2018-02-08T06:21:56.875Z,42.30
2018-02-08T06:24:24.335Z,46.87
2018-02-08T06:26:51.826Z,40.00
2018-02-08T06:29:19.409Z,43.30
2018-02-08T06:31:46.869Z,46.87
2018-02-08T06:34:14.364Z,49.13
2018-02-08T06:36:41.851Z,40.13
2018-02-08T06:39:09.344Z,41.80
2018-02-08T06:41:36.847Z,45.27
2018-02-08T06:44:04.358Z,49.77
2018-02-08T06:46:32.632Z,49.00
2018-02-08T06:49:00.094Z,42.17
2018-02-08T06:51:27.577Z,46.63
2018-02-08T06:53:55.046Z,45.73
2018-02-08T06:56:22.531Z,40.90
2018-02-08T06:58:50.063Z,42.53
2018-02-08T07:01:18.289Z,47.20
2018-02-08T07:03:45.773Z,47.97
2018-02-08T07:06:14.019Z,44.93
2018-02-08T07:08:41.528Z,44.93
2018-02-08T07:11:08.998Z,45.20
2018-02-08T07:13:36.513Z,47.63
2018-02-08T07:16:04.791Z,43.47
2018-02-08T07:18:33.023Z,46.00
2018-02-08T07:21:00.506Z,42.30
2018-02-08T07:23:27.974Z,47.33
2018-02-08T07:25:56.573Z,43.87
2018-02-08T07:28:24.827Z,50.90
2018-02-08T07:30:52.302Z,45.73
2018-02-08T07:33:20.557Z,46.90
2018-02-08T07:35:48.066Z,44.23
2018-02-08T07:38:15.551Z,47.43
2018-02-08T07:40:43.132Z,47.20
2018-02-08T07:43:12.230Z,42.20
2018-02-08T07:45:39.701Z,41.60
2018-02-08T07:48:07.958Z,43.87
2018-02-08T07:50:35.460Z,41.73
2018-02-08T07:53:02.966Z,44.70
2018-02-08T07:55:30.444Z,41.87
2018-02-08T07:57:58.702Z,42.37
2018-02-08T08:00:26.163Z,42.90
2018-02-08T08:02:53.642Z,40.63
2018-02-08T08:05:21.987Z,40.93
2018-02-08T08:07:49.452Z,38.20
2018-02-08T08:10:17.018Z,42.43
2018-02-08T08:12:45.275Z,39.20
2018-02-08T08:15:12.742Z,40.20
2018-02-08T08:17:40.230Z,45.20
2018-02-08T08:20:08.605Z,39.37
2018-02-08T08:22:36.065Z,36.47
2018-02-08T08:25:03.556Z,39.67
2018-02-08T08:27:31.030Z,39.80
2018-02-08T08:29:59.039Z,35.47
2018-02-08T08:32:27.249Z,39.00
2018-02-08T08:34:54.744Z,36.17
2018-02-08T08:37:22.976Z,44.30
2018-02-08T08:39:50.442Z,41.17
2018-02-08T08:42:17.929Z,41.53
2018-02-08T08:44:45.549Z,41.97
2018-02-08T08:47:13.149Z,39.90
2018-02-08T08:49:40.673Z,44.17
2018-02-08T08:52:08.152Z,42.10
2018-02-08T08:54:35.606Z,44.40
2018-02-08T08:57:03.093Z,42.40
2018-02-08T08:59:31.356Z,40.60
2018-02-08T09:01:58.838Z,47.07
2018-02-08T09:04:27.087Z,39.73
2018-02-08T09:06:54.546Z,42.10
2018-02-08T09:09:22.009Z,41.73
2018-02-08T09:11:50.265Z,45.70
2018-02-08T09:14:17.807Z,38.50
2018-02-08T09:16:45.278Z,39.27
2018-02-08T09:19:12.863Z,37.40
2018-02-08T09:21:40.339Z,38.83
2018-02-08T09:24:08.033Z,45.87
2018-02-08T09:26:35.506Z,41.10
2018-02-08T09:29:02.976Z,39.67
2018-02-08T09:31:30.442Z,38.77
2018-02-08T09:33:59.258Z,40.70
2018-02-08T09:36:27.545Z,41.73
2018-02-08T09:38:54.979Z,42.93
2018-02-08T09:41:23.236Z,42.20
2018-02-08T09:43:50.702Z,37.30
2018-02-08T09:46:19.674Z,37.07
2018-02-08T09:48:47.962Z,39.90
2018-02-08T09:51:15.425Z,36.50
2018-02-08T09:53:43.707Z,43.73
2018-02-08T09:56:12.987Z,39.90
2018-02-08T09:58:40.452Z,41.50
2018-02-08T10:01:08.325Z,42.93
2018-02-08T10:03:37.418Z,40.47
2018-02-08T10:06:06.389Z,36.17
2018-02-08T10:08:33.867Z,43.73
2018-02-08T10:11:02.139Z,33.77
2018-02-08T10:13:29.708Z,38.20
2018-02-08T10:15:58.662Z,36.60
2018-02-08T10:18:26.139Z,38.40
2018-02-08T10:20:56.043Z,38.90
2018-02-08T10:23:23.510Z,37.10
2018-02-08T10:25:50.982Z,33.43
2018-02-08T10:28:18.471Z,35.53
2018-02-08T10:30:45.948Z,35.20
2018-02-08T10:33:13.439Z,39.60
2018-02-08T10:35:40.890Z,41.23
2018-02-08T10:38:08.354Z,37.80
2018-02-08T10:40:37.213Z,34.00
2018-02-08T10:43:04.685Z,37.37
2018-02-08T10:45:32.171Z,35.97
2018-02-08T10:48:00.365Z,36.63
2018-02-08T10:50:27.855Z,33.07
2018-02-08T10:52:55.354Z,33.43
2018-02-08T10:55:22.833Z,32.43
2018-02-08T10:57:51.077Z,34.17
2018-02-08T11:00:19.027Z,32.37
2018-02-08T11:02:47.013Z,33.57
2018-02-08T11:05:15.243Z,32.63
2018-02-08T11:07:42.697Z,30.63
2018-02-08T11:10:10.180Z,32.90
2018-02-08T11:12:37.638Z,31.83
2018-02-08T11:15:05.118Z,28.50
2018-02-08T11:17:34.126Z,32.80
2018-02-08T11:20:01.587Z,33.00
2018-02-08T11:22:29.811Z,36.57
2018-02-08T11:24:57.291Z,31.30
2018-02-08T11:27:24.746Z,31.73
2018-02-08T11:29:52.829Z,33.17
2018-02-08T11:32:20.302Z,33.70
2018-02-08T11:34:48.526Z,30.17
2018-02-08T11:37:16.017Z,28.40
2018-02-08T11:39:45.007Z,32.53
2018-02-08T11:42:12.495Z,29.63
2018-02-08T11:44:40.798Z,30.10
2018-02-08T11:47:08.258Z,30.67
2018-02-08T11:49:35.722Z,30.00
2018-02-08T11:52:03.223Z,33.80
2018-02-08T11:54:30.699Z,32.23
2018-02-08T11:56:58.934Z,32.80
2018-02-08T11:59:26.394Z,31.10
2018-02-08T12:01:53.870Z,33.67
2018-02-08T12:04:21.419Z,32.40
2018-02-08T12:06:48.882Z,33.23
2018-02-08T12:09:16.352Z,31.67
2018-02-08T12:11:44.588Z,33.00
2018-02-08T12:14:12.097Z,29.13
2018-02-08T12:16:40.426Z,32.03
2018-02-08T12:19:07.884Z,27.97
2018-02-08T12:21:35.361Z,31.30
2018-02-08T12:24:02.847Z,26.60
2018-02-08T12:26:31.071Z,28.20
2018-02-08T12:28:59.530Z,26.17
2018-02-08T12:31:27.039Z,33.73
2018-02-08T12:33:55.014Z,29.17
2018-02-08T12:36:23.242Z,29.83
2018-02-08T12:38:50.726Z,30.60
2018-02-08T12:41:18.309Z,33.00
2018-02-08T12:43:46.545Z,35.60
2018-02-08T12:46:14.127Z,26.87
2018-02-08T12:48:41.574Z,35.13
2018-02-08T12:51:09.037Z,33.63
2018-02-08T12:53:36.513Z,33.47
2018-02-08T12:56:04.773Z,28.43
2018-02-08T12:58:32.205Z,30.37
2018-02-08T13:00:59.778Z,30.90
2018-02-08T13:03:27.230Z,33.30
2018-02-08T13:05:54.720Z,31.57
2018-02-08T13:08:22.818Z,25.03
2018-02-08T13:10:50.378Z,30.47
2018-02-08T13:13:17.848Z,28.90
2018-02-08T13:15:45.610Z,32.73
2018-02-08T13:18:14.063Z,32.70
2018-02-08T13:20:41.522Z,35.83
2018-02-08T13:23:09.007Z,28.87
2018-02-08T13:25:36.485Z,26.10
2018-02-08T13:28:03.962Z,25.93
2018-02-08T13:30:31.505Z,28.17
2018-02-08T13:32:58.986Z,32.30
2018-02-08T13:35:27.213Z,25.77
2018-02-08T13:37:54.695Z,26.60
2018-02-08T13:40:32.055Z,23.60
2018-02-08T13:42:59.538Z,19.97
2018-02-08T13:45:28.807Z,25.50
2018-02-08T13:48:14.962Z,24.23
2018-02-08T13:51:00.951Z,23.33
2018-02-08T13:53:34.019Z,29.90
2018-02-08T13:56:11.383Z,21.10
2018-02-08T13:58:42.857Z,21.47
2018-02-08T14:01:10.322Z,21.23
2018-02-08T14:03:37.777Z,21.83
2018-02-08T14:06:05.264Z,17.13
2018-02-08T14:08:32.718Z,13.57
2018-02-08T14:11:00.941Z,10.90
2018-02-08T14:13:28.431Z,10.37
2018-02-08T14:15:55.992Z,15.27
2018-02-08T14:18:24.110Z,18.27
2018-02-08T14:20:51.578Z,16.13
2018-02-08T14:23:19.426Z,16.30
2018-02-08T14:25:46.896Z,15.10
2018-02-08T14:28:14.488Z,14.17
2018-02-08T14:30:41.899Z,11.43
2018-02-08T14:33:09.363Z,12.27
2018-02-08T14:35:36.975Z,12.33
2018-02-08T14:38:05.193Z,9.93
2018-02-08T14:40:32.669Z,8.50
2018-02-08T14:43:00.246Z,9.70
2018-02-08T14:45:28.473Z,10.40
2018-02-08T14:47:56.263Z,12.70
2018-02-08T14:50:23.750Z,15.63
2018-02-08T14:52:51.202Z,13.43
2018-02-08T14:55:19.217Z,10.60
2018-02-08T14:57:48.457Z,9.13
2018-02-08T15:00:15.909Z,12.33
2018-02-08T15:02:43.371Z,9.30
2018-02-08T15:05:10.873Z,9.57
2018-02-08T15:07:39.115Z,11.87
2018-02-08T15:10:06.616Z,10.23
2018-02-08T15:12:34.230Z,9.70
2018-02-08T15:15:02.501Z,12.70
2018-02-08T15:17:29.951Z,9.50
2018-02-08T15:19:57.818Z,10.80
2018-02-08T15:22:26.300Z,10.60
2018-02-08T15:24:54.234Z,13.10
2018-02-08T15:27:22.039Z,9.13
2018-02-08T15:29:49.536Z,12.43
2018-02-08T15:32:17.519Z,9.57
2018-02-08T15:34:45.030Z,8.63
2018-02-08T15:37:12.522Z,8.13
2018-02-08T15:39:40.121Z,12.10
2018-02-08T15:42:07.622Z,11.63
2018-02-08T15:44:35.865Z,12.70
2018-02-08T15:47:04.227Z,17.33
2018-02-08T15:49:31.707Z,10.40
2018-02-08T15:51:59.194Z,8.37
2018-02-08T15:54:27.918Z,13.73
2018-02-08T15:56:55.511Z,13.90
2018-02-08T15:59:22.978Z,16.13
2018-02-08T16:01:50.425Z,8.90
2018-02-08T16:04:18.695Z,9.90
2018-02-08T16:06:46.149Z,8.63
2018-02-08T16:09:13.603Z,6.23
2018-02-08T16:11:41.078Z,12.23
2018-02-08T16:14:08.534Z,10.20
2018-02-08T16:16:36.834Z,18.03
2018-02-08T16:19:05.196Z,10.63
2018-02-08T16:21:32.654Z,13.50
2018-02-08T16:24:00.114Z,17.03
2018-02-08T16:26:28.386Z,14.73
2018-02-08T16:28:55.856Z,12.10
2018-02-08T16:31:24.074Z,13.67
2018-02-08T16:33:51.795Z,24.13
2018-02-08T16:36:20.070Z,12.17
2018-02-08T16:38:47.562Z,14.10
2018-02-08T16:41:15.075Z,10.60
2018-02-08T16:43:42.526Z,12.90
2018-02-08T16:46:09.994Z,17.73
2018-02-08T16:48:38.240Z,13.97
2018-02-08T16:51:05.702Z,13.13
2018-02-08T16:53:33.982Z,15.70
2018-02-08T16:56:03.019Z,12.97
2018-02-08T16:58:31.400Z,15.83
2018-02-08T17:00:58.861Z,19.40
2018-02-08T17:03:26.348Z,17.67
2018-02-08T17:05:53.923Z,22.33
2018-02-08T17:08:22.904Z,18.10
2018-02-08T17:10:50.390Z,20.53
2018-02-08T17:13:19.714Z,22.23
2018-02-08T17:15:47.444Z,14.87
2018-02-08T17:18:15.778Z,19.77
2018-02-08T17:20:43.282Z,29.23
2018-02-08T17:23:11.123Z,14.57
2018-02-08T17:25:38.650Z,20.07
2018-02-08T17:28:06.162Z,17.80
2018-02-08T17:30:34.731Z,22.00
2018-02-08T17:35:37.056Z,21.43
2018-02-08T17:38:05.291Z,23.80
2018-02-08T17:40:32.935Z,21.70
2018-02-08T17:43:00.413Z,22.60
2018-02-08T17:45:27.947Z,25.53
2018-02-08T17:47:56.588Z,20.30
2018-02-08T17:50:24.572Z,19.00
2018-02-08T17:52:52.956Z,21.17
2018-02-08T17:55:20.413Z,22.70
2018-02-08T17:57:47.931Z,19.23
2018-02-08T18:00:16.903Z,19.90
2018-02-08T18:02:44.787Z,23.60
2018-02-08T18:05:12.267Z,25.60
2018-02-08T18:07:39.794Z,28.17
2018-02-08T18:10:08.976Z,20.73
2018-02-08T18:12:36.445Z,28.30
2018-02-08T18:15:04.679Z,25.80
2018-02-08T18:17:32.142Z,20.43
2018-02-08T18:19:59.630Z,31.07
2018-02-08T18:22:27.202Z,24.73
2018-02-08T18:24:56.175Z,24.47
2018-02-08T18:27:23.687Z,28.90
2018-02-08T18:29:51.214Z,27.20
2018-02-08T18:32:18.679Z,32.43
2018-02-08T18:34:46.937Z,24.33
2018-02-08T18:37:15.273Z,21.63
2018-02-08T18:39:42.730Z,27.67
2018-02-08T18:42:10.346Z,25.43
2018-02-08T18:44:38.566Z,23.23
2018-02-08T18:47:07.014Z,31.20
2018-02-08T18:49:35.274Z,26.53
2018-02-08T18:52:03.542Z,30.50
2018-02-08T18:54:31.775Z,31.77
2018-02-08T18:56:59.282Z,32.13
2018-02-08T18:59:27.535Z,25.77
2018-02-08T19:01:56.802Z,28.33
2018-02-08T19:04:24.302Z,34.87
2018-02-08T19:06:51.769Z,37.00
2018-02-08T19:09:21.346Z,36.93
2018-02-08T19:11:48.860Z,36.63
2018-02-08T19:14:16.328Z,44.47
2018-02-08T19:16:43.806Z,38.93
2018-02-08T19:19:11.317Z,46.50
2018-02-08T19:21:39.771Z,45.87
2018-02-08T19:24:09.039Z,46.63
2018-02-08T19:26:36.584Z,50.23
2018-02-08T19:29:04.814Z,47.93
2018-02-08T19:31:32.309Z,48.47
2018-02-08T19:33:59.810Z,45.60
2018-02-08T19:36:27.370Z,48.83
2018-02-08T19:38:54.846Z,54.27
2018-02-08T19:41:22.400Z,45.20
2018-02-08T19:43:50.741Z,45.10
2018-02-08T19:46:20.277Z,45.67
2018-02-08T19:48:47.783Z,56.70
2018-02-08T19:51:16.228Z,54.50
2018-02-08T19:53:43.724Z,58.70
2018-02-08T19:56:11.821Z,50.73
2018-02-08T19:58:39.465Z,50.50
2018-02-08T20:01:08.328Z,56.87
2018-02-08T20:03:35.862Z,52.60
2018-02-08T20:06:03.532Z,48.93
2018-02-08T20:08:31.079Z,44.07
2018-02-08T20:10:59.009Z,49.67
2018-02-08T20:13:27.172Z,53.60
2018-02-08T20:15:54.766Z,54.30
2018-02-08T20:18:23.278Z,51.27
2018-02-08T20:20:51.520Z,37.67
2018-02-08T20:23:18.974Z,43.57
2018-02-08T20:25:46.486Z,51.60
2018-02-08T20:28:13.994Z,52.83
2018-02-08T20:30:42.242Z,51.70
2018-02-08T20:33:09.773Z,45.67
2018-02-08T20:35:37.283Z,50.93
2018-02-08T20:38:04.778Z,47.43
2018-02-08T20:40:33.072Z,49.10
2018-02-08T20:43:06.292Z,46.93
2018-02-08T20:45:33.942Z,47.93
2018-02-08T20:48:01.474Z,46.20
2018-02-08T20:50:29.065Z,52.30
2018-02-08T20:52:56.834Z,52.33
2018-02-08T20:55:25.035Z,46.37
2018-02-08T20:57:52.517Z,56.10
2018-02-08T21:00:20.057Z,65.20
2018-02-08T21:02:47.603Z,52.43
2018-02-08T21:05:15.718Z,54.23
2018-02-08T21:07:44.432Z,54.03
2018-02-08T21:10:13.021Z,61.27
2018-02-08T21:12:41.126Z,55.83
2018-02-08T21:15:08.881Z,48.10
2018-02-08T21:17:37.191Z,66.77
2018-02-08T21:20:04.698Z,60.20
2018-02-08T21:22:34.040Z,51.03
2018-02-08T21:25:05.623Z,50.07
2018-02-08T21:27:34.794Z,56.83
2018-02-08T21:30:03.141Z,53.53
2018-02-08T21:32:31.582Z,58.70
2018-02-08T21:34:59.722Z,58.27
2018-02-08T21:37:29.067Z,57.50
2018-02-08T21:39:56.657Z,59.33
2018-02-08T21:42:24.115Z,57.27
2018-02-08T21:44:51.690Z,57.43
2018-02-08T21:47:19.397Z,61.80
2018-02-08T21:49:47.179Z,59.43
2018-02-08T21:52:14.792Z,60.20
2018-02-08T21:54:43.049Z,50.27
2018-02-08T21:57:10.542Z,51.63
2018-02-08T21:59:38.075Z,58.43
2018-02-08T22:02:06.338Z,60.80
2018-02-08T22:04:34.594Z,57.83
2018-02-08T22:07:02.398Z,55.43
2018-02-08T22:09:29.887Z,53.23
2018-02-08T22:11:57.392Z,62.73
2018-02-08T22:14:25.671Z,55.33
2018-02-08T22:16:53.168Z,54.03
2018-02-08T22:19:21.176Z,54.93
2018-02-08T22:21:48.746Z,54.17
2018-02-08T22:24:16.309Z,58.63
2018-02-08T22:26:44.563Z,58.03
2018-02-08T22:29:12.070Z,49.43
2018-02-08T22:31:40.358Z,54.73
2018-02-08T22:34:07.962Z,55.27
2018-02-08T22:36:35.438Z,54.50
2018-02-08T22:39:02.954Z,52.60
2018-02-08T22:41:30.446Z,52.27
2018-02-08T22:43:58.797Z,45.00
2018-02-08T22:46:26.282Z,52.63
2018-02-08T22:48:53.763Z,45.97
2018-02-08T22:51:22.090Z,57.53
2018-02-08T22:53:49.608Z,50.67
2018-02-08T22:56:17.167Z,48.77
2018-02-08T22:58:44.698Z,50.33
2018-02-08T23:01:12.164Z,45.77
2018-02-08T23:03:40.460Z,43.70
2018-02-08T23:06:08.027Z,48.30
2018-02-08T23:08:35.560Z,49.20
2018-02-08T23:11:03.803Z,47.87
2018-02-08T23:13:31.335Z,44.77
2018-02-08T23:15:58.813Z,50.33
2018-02-08T23:18:26.344Z,42.87
2018-02-08T23:20:53.817Z,43.57
2018-02-08T23:23:21.351Z,42.40
2018-02-08T23:25:48.863Z,43.33
2018-02-08T23:28:16.371Z,44.20
2018-02-08T23:30:44.374Z,40.07
2018-02-08T23:33:11.838Z,41.10
2018-02-08T23:35:39.330Z,37.50
2018-02-08T23:38:07.583Z,34.33
2018-02-08T23:40:35.429Z,39.23
2018-02-08T23:43:02.903Z,42.17
2018-02-08T23:45:30.374Z,45.80
2018-02-08T23:47:58.646Z,37.07
2018-02-08T23:50:26.922Z,40.93
2018-02-08T23:52:55.202Z,36.93
2018-02-08T23:55:23.441Z,43.63
2018-02-08T23:57:51.614Z,42.57
